Time;durP1;ratioP1;P1;durP2;ratioP2;P2;SDS_P1;SDS_P2;PMS_P1;PMS_P2;Temp;Humidity;BMP_temperature;BMP_pressure;BME280_temperature;BME280_humidity;BME280_pressure;Samples;Min_cycle;Max_cycle;Signal;HPM_P1;HPM_P2
2023/09/27 00:05:28;;;;;;;14.1;10.3;;;;;;;13.32;91.91;;;;;
2023/09/27 00:15:28;;;;;;;14.1;10.3;;;;;;;13.25;92.24;;;;;
2023/09/27 00:26:28;;;;;;;14.1;10.3;;;;;;;13.16;92.18;;;;;
2023/09/27 00:37:28;;;;;;;11.4;6.6;;;;;;;13.04;92.32;;;;;
2023/09/27 00:47:28;;;;;;;11.4;6.6;;;;;;;12.94;92.09;;;;;
2023/09/27 00:58:30;;;;;;;11.4;6.6;;;;;;;12.74;92.59;;;;;
2023/09/27 01:09:28;;;;;;;11.8;6.3;;;;;;;12.79;93.2;;;;;
2023/09/27 01:20:28;;;;;;;11.8;6.3;;;;;;;12.84;93.36;;;;;
2023/09/27 01:31:28;;;;;;;11.8;6.3;;;;;;;12.84;93.29;;;;;
2023/09/27 01:41:28;;;;;;;12.3;6.8;;;;;;;12.82;92.95;;;;;
2023/09/27 01:51:28;;;;;;;12.3;6.8;;;;;;;12.72;92.94;;;;;
2023/09/27 02:02:28;;;;;;;12.3;6.8;;;;;;;12.67;92.58;;;;;
2023/09/27 02:13:28;;;;;;;11.8;6.6;;;;;;;12.6;92.51;;;;;
2023/09/27 02:24:28;;;;;;;11.8;6.6;;;;;;;12.54;92.18;;;;;
2023/09/27 02:35:28;;;;;;;10.2;5.5;;;;;;;12.41;91.65;;;;;
2023/09/27 02:46:28;;;;;;;10.2;5.5;;;;;;;12.27;92.21;;;;;
2023/09/27 02:56:28;;;;;;;10.2;5.5;;;;;;;12.17;91.84;;;;;
2023/09/27 03:07:28;;;;;;;8.7;4.1;;;;;;;12.11;91.9;;;;;
2023/09/27 03:18:28;;;;;;;8.7;4.1;;;;;;;12.05;92.25;;;;;
2023/09/27 03:29:28;;;;;;;8.7;4.1;;;;;;;12.1;93;;;;;
2023/09/27 03:39:28;;;;;;;10;4.9;;;;;;;12.15;93.18;;;;;
2023/09/27 03:49:28;;;;;;;10;4.9;;;;;;;12.14;93.03;;;;;
2023/09/27 04:00:28;;;;;;;10;4.9;;;;;;;12.02;92.56;;;;;
2023/09/27 04:11:29;;;;;;;8.5;4.2;;;;;;;12.02;92.79;;;;;
2023/09/27 04:21:28;;;;;;;8.5;4.2;;;;;;;11.89;92.26;;;;;
2023/09/27 04:32:28;;;;;;;8.5;4.2;;;;;;;11.78;91.99;;;;;
2023/09/27 04:42:28;;;;;;;8.1;4.7;;;;;;;11.65;91.84;;;;;
2023/09/27 04:53:30;;;;;;;8.1;4.7;;;;;;;11.65;92.37;;;;;
2023/09/27 05:03:28;;;;;;;8.1;4.7;;;;;;;11.72;92.26;;;;;
2023/09/27 05:14:28;;;;;;;8.5;5;;;;;;;11.8;92.25;;;;;
2023/09/27 05:24:28;;;;;;;8.5;5;;;;;;;12.05;92.78;;;;;
2023/09/27 05:35:28;;;;;;;9.8;5.1;;;;;;;12.4;93.25;;;;;
2023/09/27 05:46:29;;;;;;;9.8;5.1;;;;;;;12.86;93.53;;;;;
2023/09/27 05:57:29;;;;;;;9.8;5.1;;;;;;;13.32;93.3;;;;;
2023/09/27 06:08:28;;;;;;;10.3;6.5;;;;;;;13.73;92.75;;;;;
2023/09/27 06:19:28;;;;;;;10.3;6.5;;;;;;;14.21;91.45;;;;;
2023/09/27 06:29:28;;;;;;;10.3;6.5;;;;;;;14.62;91.06;;;;;
2023/09/27 06:40:29;;;;;;;18;9.6;;;;;;;14.99;90.52;;;;;
2023/09/27 06:50:28;;;;;;;18;9.6;;;;;;;15.35;90.74;;;;;
2023/09/27 07:00:28;;;;;;;18;9.6;;;;;;;15.81;90.08;;;;;
2023/09/27 07:11:28;;;;;;;12.1;8.8;;;;;;;16.18;89.06;;;;;
2023/09/27 07:22:31;;;;;;;12.1;8.8;;;;;;;16.68;87.35;;;;;
2023/09/27 07:32:30;;;;;;;12.1;8.8;;;;;;;17.03;86.1;;;;;
2023/09/27 07:43:29;;;;;;;13.3;7.1;;;;;;;17.49;85.33;;;;;
2023/09/27 07:53:28;;;;;;;13.3;7.1;;;;;;;18;84.49;;;;;
2023/09/27 08:03:28;;;;;;;13.3;7.1;;;;;;;18.36;84.42;;;;;
2023/09/27 08:13:30;;;;;;;11.4;7.8;;;;;;;18.8;84.77;;;;;
2023/09/27 08:24:28;;;;;;;11.4;7.8;;;;;;;19.26;82.9;;;;;
2023/09/27 08:34:28;;;;;;;11.4;7.8;;;;;;;19.79;82.36;;;;;
2023/09/27 08:45:29;;;;;;;12.1;7.9;;;;;;;20.23;80.42;;;;;
2023/09/27 08:56:28;;;;;;;12.1;7.9;;;;;;;20.87;79.16;;;;;
2023/09/27 09:06:29;;;;;;;15.6;7.7;;;;;;;21.39;77.51;;;;;
2023/09/27 09:16:29;;;;;;;15.6;7.7;;;;;;;21.68;75.25;;;;;
2023/09/27 09:26:29;;;;;;;15.6;7.7;;;;;;;22.3;73.25;;;;;
2023/09/27 09:37:29;;;;;;;11;7.6;;;;;;;22.68;71.21;;;;;
2023/09/27 09:47:29;;;;;;;11;7.6;;;;;;;23.02;70.08;;;;;
2023/09/27 09:57:28;;;;;;;11;7.6;;;;;;;23.37;67.86;;;;;
2023/09/27 10:08:33;;;;;;;16.2;7.7;;;;;;;23.76;63.35;;;;;
2023/09/27 10:19:28;;;;;;;16.2;7.7;;;;;;;24.11;61.02;;;;;
2023/09/27 10:29:29;;;;;;;16.2;7.7;;;;;;;24.16;60.97;;;;;
2023/09/27 10:40:28;;;;;;;12.6;6.4;;;;;;;24.51;60.76;;;;;
2023/09/27 10:51:28;;;;;;;12.6;6.4;;;;;;;24.79;61.23;;;;;
2023/09/27 11:01:28;;;;;;;12.6;6.4;;;;;;;24.97;56.94;;;;;
2023/09/27 11:12:28;;;;;;;11;5.8;;;;;;;25.23;58.11;;;;;
2023/09/27 11:22:28;;;;;;;11;5.8;;;;;;;25.07;55.88;;;;;
2023/09/27 11:32:29;;;;;;;11;5.8;;;;;;;24.89;53.34;;;;;
2023/09/27 11:43:28;;;;;;;10.4;6.3;;;;;;;25.07;48.79;;;;;
2023/09/27 11:54:28;;;;;;;10.4;6.3;;;;;;;25.2;52.86;;;;;
2023/09/27 12:04:28;;;;;;;10.4;6.3;;;;;;;25.22;47.4;;;;;
2023/09/27 12:15:29;;;;;;;8.2;4.8;;;;;;;25.19;49.71;;;;;
2023/09/27 12:25:28;;;;;;;8.2;4.8;;;;;;;25.27;50.42;;;;;
2023/09/27 12:36:29;;;;;;;9.1;5.1;;;;;;;25.52;48.6;;;;;
2023/09/27 12:46:28;;;;;;;9.1;5.1;;;;;;;25.44;49.4;;;;;
2023/09/27 12:56:29;;;;;;;9.1;5.1;;;;;;;25.56;50.09;;;;;
2023/09/27 13:06:29;;;;;;;9.4;5.4;;;;;;;25.33;48.95;;;;;
2023/09/27 13:16:29;;;;;;;9.4;5.4;;;;;;;25.38;50.56;;;;;
2023/09/27 13:27:29;;;;;;;9.4;5.4;;;;;;;25.49;52.09;;;;;
2023/09/27 13:37:28;;;;;;;9.5;5.9;;;;;;;25.33;53.59;;;;;
2023/09/27 13:48:28;;;;;;;9.5;5.9;;;;;;;25.46;55.26;;;;;
2023/09/27 13:58:28;;;;;;;9.5;5.9;;;;;;;25.32;52.73;;;;;
2023/09/27 14:08:28;;;;;;;10.6;5.4;;;;;;;25.54;50.98;;;;;
2023/09/27 14:18:29;;;;;;;10.6;5.4;;;;;;;25.07;53.15;;;;;
2023/09/27 14:28:29;;;;;;;10.6;5.4;;;;;;;25.23;53.14;;;;;
2023/09/27 14:39:29;;;;;;;12.3;5.6;;;;;;;25.18;54.85;;;;;
2023/09/27 14:49:29;;;;;;;12.3;5.6;;;;;;;25.07;55.34;;;;;
2023/09/27 15:00:29;;;;;;;12.3;5.6;;;;;;;24.99;55.4;;;;;
2023/09/27 15:11:29;;;;;;;8.7;5.1;;;;;;;24.69;56.59;;;;;
2023/09/27 15:22:29;;;;;;;8.7;5.1;;;;;;;24.78;56.81;;;;;
2023/09/27 15:33:29;;;;;;;8.7;5.1;;;;;;;26.07;52.81;;;;;
2023/09/27 15:44:29;;;;;;;9.3;5;;;;;;;26.14;51.78;;;;;
2023/09/27 15:55:29;;;;;;;9.3;5;;;;;;;25.76;53.72;;;;;
2023/09/27 16:06:29;;;;;;;9.2;5;;;;;;;24.9;55.91;;;;;
2023/09/27 16:17:29;;;;;;;9.2;5;;;;;;;23.61;58.56;;;;;
2023/09/27 16:27:29;;;;;;;9.2;5;;;;;;;22.41;63.1;;;;;
2023/09/27 16:38:29;;;;;;;12.6;7.1;;;;;;;21.7;66.22;;;;;
2023/09/27 16:48:29;;;;;;;12.6;7.1;;;;;;;21.02;69.57;;;;;
2023/09/27 16:59:29;;;;;;;12.6;7.1;;;;;;;20.41;72.18;;;;;
2023/09/27 17:09:29;;;;;;;22.6;17.8;;;;;;;19.91;74.33;;;;;
2023/09/27 17:19:29;;;;;;;22.6;17.8;;;;;;;19.66;75.46;;;;;
2023/09/27 17:30:29;;;;;;;22.6;17.8;;;;;;;19.36;76.99;;;;;
2023/09/27 17:40:29;;;;;;;14.5;10.2;;;;;;;19.1;77.66;;;;;
2023/09/27 17:51:29;;;;;;;14.5;10.2;;;;;;;18.78;78.68;;;;;
2023/09/27 18:02:29;;;;;;;14.5;10.2;;;;;;;18.58;80.25;;;;;
2023/09/27 18:12:29;;;;;;;57.5;45.8;;;;;;;18.4;81.05;;;;;
2023/09/27 18:22:29;;;;;;;57.5;45.8;;;;;;;18.28;81.51;;;;;
2023/09/27 18:33:29;;;;;;;57.5;45.8;;;;;;;18.12;82.76;;;;;
2023/09/27 18:43:29;;;;;;;13.9;10.7;;;;;;;18.06;82.13;;;;;
2023/09/27 18:54:29;;;;;;;13.9;10.7;;;;;;;17.89;82.08;;;;;
2023/09/27 19:04:29;;;;;;;13.9;10.7;;;;;;;17.64;82.09;;;;;
2023/09/27 19:14:29;;;;;;;15.2;11.2;;;;;;;17.27;82.46;;;;;
2023/09/27 19:24:29;;;;;;;15.2;11.2;;;;;;;16.95;83.35;;;;;
2023/09/27 19:35:29;;;;;;;15.2;11.2;;;;;;;16.58;84.48;;;;;
2023/09/27 19:46:29;;;;;;;19.7;12.4;;;;;;;16.36;85.53;;;;;
2023/09/27 19:56:29;;;;;;;19.7;12.4;;;;;;;16.15;86.96;;;;;
2023/09/27 20:07:29;;;;;;;20;15.2;;;;;;;16;88.4;;;;;
2023/09/27 20:17:29;;;;;;;20;15.2;;;;;;;16.05;90;;;;;
2023/09/27 20:27:29;;;;;;;20;15.2;;;;;;;15.89;89.41;;;;;
2023/09/27 20:38:29;;;;;;;16.6;14.2;;;;;;;15.57;89.2;;;;;
2023/09/27 20:48:29;;;;;;;16.6;14.2;;;;;;;15.4;89.22;;;;;
2023/09/27 20:59:29;;;;;;;16.6;14.2;;;;;;;15.19;89.36;;;;;
2023/09/27 21:09:29;;;;;;;16.5;13.1;;;;;;;15.13;90.25;;;;;
2023/09/27 21:20:29;;;;;;;16.5;13.1;;;;;;;15.14;91.7;;;;;
2023/09/27 21:30:29;;;;;;;16.5;13.1;;;;;;;14.93;90.82;;;;;
2023/09/27 21:40:29;;;;;;;17.7;12.8;;;;;;;14.7;90.11;;;;;
2023/09/27 21:51:29;;;;;;;17.7;12.8;;;;;;;14.53;90.28;;;;;
2023/09/27 22:01:29;;;;;;;17.7;12.8;;;;;;;14.4;90.12;;;;;
2023/09/27 22:12:30;;;;;;;17.7;12.8;;;;;;;14.19;89.45;;;;;
2023/09/27 22:22:29;;;;;;;17.7;12.8;;;;;;;14;90.4;;;;;
2023/09/27 22:33:29;;;;;;;17.7;12.8;;;;;;;13.85;92.37;;;;;
2023/09/27 22:43:30;;;;;;;15.9;10.2;;;;;;;13.78;92.38;;;;;
2023/09/27 22:53:29;;;;;;;15.9;10.2;;;;;;;13.61;91.63;;;;;
2023/09/27 23:04:29;;;;;;;15.9;10.2;;;;;;;13.42;91.15;;;;;
2023/09/27 23:14:31;;;;;;;13.2;7.1;;;;;;;13.32;91.77;;;;;
2023/09/27 23:26:00;;;;;;;13.2;7.1;;;;;;;13.21;91.58;;;;;
2023/09/27 23:35:29;;;;;;;13.2;7.1;;;;;;;13.07;91.12;;;;;
2023/09/27 23:46:29;;;;;;;12.9;8.1;;;;;;;12.96;91.51;;;;;
2023/09/27 23:56:29;;;;;;;12.9;8.1;;;;;;;12.94;91.96;;;;;
